createdAt,value
2019-04-28T00:02:06.831Z,8.65
2019-04-28T00:04:37.446Z,8.66
2019-04-28T00:07:15.864Z,8.66
2019-04-28T00:09:46.154Z,8.64
2019-04-28T00:12:17.123Z,8.66
2019-04-28T00:14:47.730Z,8.72
2019-04-28T00:17:18.349Z,8.70
2019-04-28T00:19:48.797Z,8.68
2019-04-28T00:22:32.551Z,8.73
2019-04-28T00:25:24.428Z,8.71
2019-04-28T00:27:55.206Z,8.65
2019-04-28T00:30:28.067Z,8.61
2019-04-28T00:33:01.696Z,8.65
2019-04-28T00:35:35.254Z,8.65
2019-04-28T00:38:05.823Z,8.64
2019-04-28T00:40:37.664Z,8.64
2019-04-28T00:43:07.943Z,8.64
2019-04-28T00:45:39.132Z,8.65
2019-04-28T00:48:10.961Z,8.68
2019-04-28T00:50:43.804Z,8.70
2019-04-28T00:53:14.139Z,8.71
2019-04-28T00:55:44.475Z,8.68
2019-04-28T00:58:14.820Z,8.72
2019-04-28T01:00:46.848Z,8.74
2019-04-28T01:03:17.709Z,8.71
2019-04-28T01:05:48.028Z,8.71
2019-04-28T01:08:18.346Z,8.74
2019-04-28T01:10:50.745Z,8.72
2019-04-28T01:13:21.481Z,8.73
2019-04-28T01:15:59.807Z,8.75
2019-04-28T01:18:36.305Z,8.76
2019-04-28T01:21:08.368Z,8.77
2019-04-28T01:23:40.266Z,8.74
2019-04-28T01:26:10.550Z,8.73
2019-04-28T01:28:42.471Z,8.76
2019-04-28T01:31:39.515Z,8.77
2019-04-28T01:34:20.914Z,8.75
2019-04-28T01:36:52.534Z,8.76
2019-04-28T01:39:22.797Z,8.73
2019-04-28T01:41:53.134Z,8.71
2019-04-28T01:44:23.724Z,8.66
2019-04-28T01:46:54.424Z,8.68
2019-04-28T01:49:24.687Z,8.71
2019-04-28T01:52:00.834Z,8.71
2019-04-28T01:54:30.847Z,8.66
2019-04-28T01:57:01.704Z,8.66
2019-04-28T01:59:32.117Z,8.62
2019-04-28T02:02:02.674Z,8.62
2019-04-28T02:04:32.947Z,8.61
2019-04-28T02:07:03.539Z,8.57
2019-04-28T02:09:33.804Z,8.54
2019-04-28T02:12:04.340Z,8.53
2019-04-28T02:14:34.623Z,8.53
2019-04-28T02:17:04.992Z,8.53
2019-04-28T02:19:35.584Z,8.56
2019-04-28T02:22:14.731Z,8.52
2019-04-28T02:24:44.991Z,8.53
2019-04-28T02:27:17.045Z,8.58
2019-04-28T02:29:47.331Z,8.53
2019-04-28T02:32:21.290Z,8.50
2019-04-28T02:34:50.823Z,8.50
2019-04-28T02:37:21.763Z,8.51
2019-04-28T02:39:52.052Z,8.51
2019-04-28T02:42:23.954Z,8.49
2019-04-28T02:44:55.258Z,8.45
2019-04-28T02:47:27.881Z,8.36
2019-04-28T02:50:03.727Z,8.36
2019-04-28T02:53:01.593Z,8.34
2019-04-28T02:55:32.868Z,8.34
2019-04-28T02:58:04.866Z,8.36
2019-04-28T03:00:35.162Z,8.33
2019-04-28T03:03:05.498Z,8.33
2019-04-28T03:05:35.833Z,8.31
2019-04-28T03:08:06.495Z,8.27
2019-04-28T03:10:37.042Z,8.22
2019-04-28T03:13:07.615Z,8.19
2019-04-28T03:15:37.994Z,8.12
2019-04-28T03:18:08.264Z,8.07
2019-04-28T03:20:41.530Z,8.04
2019-04-28T03:23:12.433Z,8.04
2019-04-28T03:25:50.807Z,8.01
2019-04-28T03:28:42.882Z,7.93
2019-04-28T03:32:04.011Z,7.94
2019-04-28T03:34:12.947Z,7.93
2019-04-28T03:36:43.186Z,7.86
2019-04-28T03:39:13.480Z,7.86
2019-04-28T03:41:43.879Z,7.86
2019-04-28T03:44:14.134Z,7.93
2019-04-28T03:46:51.211Z,7.97
2019-04-28T03:49:34.612Z,8.02
2019-04-28T03:52:05.999Z,8.00
2019-04-28T03:54:36.603Z,8.01
2019-04-28T03:57:06.902Z,8.01
2019-04-28T03:59:37.215Z,8.06
2019-04-28T04:02:07.555Z,8.08
2019-04-28T04:04:40.720Z,8.12
2019-04-28T04:07:11.149Z,8.16
2019-04-28T04:09:52.386Z,8.22
2019-04-28T04:12:40.357Z,8.29
2019-04-28T04:15:32.391Z,8.34
2019-04-28T04:18:07.272Z,8.34
2019-04-28T04:20:37.680Z,8.41
2019-04-28T04:23:11.073Z,8.47
2019-04-28T04:25:41.889Z,8.50
2019-04-28T04:28:12.576Z,8.52
2019-04-28T04:30:43.098Z,8.55
2019-04-28T04:33:13.642Z,8.56
2019-04-28T04:35:43.946Z,8.60
2019-04-28T04:38:14.256Z,8.62
2019-04-28T04:40:44.586Z,8.62
2019-04-28T04:43:16.661Z,8.64
2019-04-28T04:45:46.926Z,8.66
2019-04-28T04:48:21.468Z,8.68
2019-04-28T04:50:51.276Z,8.68
2019-04-28T04:53:21.801Z,8.65
2019-04-28T04:55:52.720Z,8.64
2019-04-28T04:58:23.027Z,8.63
2019-04-28T05:01:07.882Z,8.63
2019-04-28T05:03:41.749Z,8.61
2019-04-28T05:06:29.875Z,8.65
2019-04-28T05:09:00.178Z,8.65
2019-04-28T05:11:30.472Z,8.67
2019-04-28T05:14:01.026Z,8.68
2019-04-28T05:16:34.881Z,8.72
2019-04-28T05:19:05.483Z,8.74
2019-04-28T05:21:36.164Z,8.79
2019-04-28T05:24:24.341Z,8.86
2019-04-28T05:26:54.950Z,8.91
2019-04-28T05:29:26.831Z,8.95
2019-04-28T05:32:02.008Z,9.01
2019-04-28T05:34:30.895Z,9.10
2019-04-28T05:37:02.504Z,9.16
2019-04-28T05:39:32.839Z,9.25
2019-04-28T05:42:05.608Z,9.39
2019-04-28T05:44:37.610Z,9.48
2019-04-28T05:47:10.045Z,9.47
2019-04-28T05:49:53.458Z,9.43
2019-04-28T05:53:01.093Z,9.45
2019-04-28T05:55:42.578Z,9.43
2019-04-28T05:58:30.271Z,9.43
2019-04-28T06:01:25.483Z,9.53
2019-04-28T06:03:55.904Z,9.66
2019-04-28T06:06:30.342Z,9.79
2019-04-28T06:09:29.482Z,9.89
2019-04-28T06:12:00.194Z,9.86
2019-04-28T06:14:34.225Z,9.93
2019-04-28T06:17:04.498Z,9.94
2019-04-28T06:19:35.058Z,10.00
2019-04-28T06:22:05.347Z,10.03
2019-04-28T06:24:36.826Z,10.11
2019-04-28T06:27:08.727Z,10.55
2019-04-28T06:29:39.073Z,10.55
2019-04-28T06:32:09.621Z,10.98
2019-04-28T06:34:39.930Z,11.23
2019-04-28T06:37:10.515Z,11.53
2019-04-28T06:39:41.186Z,11.53
2019-04-28T06:42:13.066Z,11.62
2019-04-28T06:44:43.429Z,11.60
2019-04-28T06:47:16.653Z,11.80
2019-04-28T06:49:45.979Z,11.98
2019-04-28T06:52:16.588Z,12.24
2019-04-28T06:54:47.202Z,12.15
2019-04-28T06:57:17.536Z,11.94
2019-04-28T06:59:47.839Z,11.78
2019-04-28T07:02:18.151Z,11.71
2019-04-28T07:05:00.945Z,11.85
2019-04-28T07:07:21.091Z,12.17
2019-04-28T07:09:51.344Z,12.53
2019-04-28T07:12:23.054Z,12.39
2019-04-28T07:14:53.901Z,12.24
2019-04-28T07:17:25.715Z,12.43
2019-04-28T07:20:03.697Z,12.32
2019-04-28T07:22:34.447Z,11.94
2019-04-28T07:25:05.067Z,11.79
2019-04-28T07:27:36.846Z,11.54
2019-04-28T07:30:07.499Z,11.23
2019-04-28T07:32:39.330Z,11.11
2019-04-28T07:35:11.107Z,11.13
2019-04-28T07:37:41.594Z,11.10
2019-04-28T07:40:12.197Z,11.16
2019-04-28T07:42:42.893Z,13.70
2019-04-28T07:45:13.483Z,14.07
2019-04-28T07:47:43.855Z,14.07
2019-04-28T07:50:14.594Z,14.51
2019-04-28T07:52:59.819Z,17.35
2019-04-28T07:55:30.261Z,17.37
2019-04-28T07:58:02.437Z,19.40
2019-04-28T08:00:33.270Z,19.11
2019-04-28T08:03:06.124Z,20.57
2019-04-28T08:05:36.437Z,22.55
2019-04-28T08:08:07.119Z,23.17
2019-04-28T08:10:37.755Z,20.53
2019-04-28T08:13:08.211Z,18.23
2019-04-28T08:15:39.817Z,16.53
2019-04-28T08:18:11.513Z,15.82
2019-04-28T08:20:42.167Z,15.75
2019-04-28T08:23:13.714Z,16.23
2019-04-28T08:25:44.259Z,17.32
2019-04-28T08:28:15.085Z,16.74
2019-04-28T08:30:45.585Z,16.52
2019-04-28T08:34:01.661Z,16.86
2019-04-28T08:36:22.948Z,16.45
2019-04-28T08:38:55.578Z,15.35
2019-04-28T08:41:25.882Z,14.37
2019-04-28T08:43:56.559Z,17.93
2019-04-28T08:46:27.168Z,23.52
2019-04-28T08:48:58.752Z,26.72
2019-04-28T08:51:29.381Z,28.22
2019-04-28T08:53:59.978Z,28.88
2019-04-28T08:56:30.606Z,27.22
2019-04-28T08:59:01.731Z,23.23
2019-04-28T09:01:32.317Z,20.36
2019-04-28T09:04:14.877Z,18.61
2019-04-28T09:06:36.909Z,17.06
2019-04-28T09:09:13.182Z,15.75
2019-04-28T09:11:43.868Z,14.83
2019-04-28T09:14:15.312Z,14.55
2019-04-28T09:16:46.559Z,14.58
2019-04-28T09:19:18.452Z,14.82
2019-04-28T09:21:49.012Z,19.53
2019-04-28T09:24:20.688Z,25.41
2019-04-28T09:26:51.302Z,28.13
2019-04-28T09:29:22.390Z,27.74
2019-04-28T09:31:52.959Z,25.16
2019-04-28T09:34:28.351Z,22.28
2019-04-28T09:36:58.201Z,19.99
2019-04-28T09:39:46.428Z,20.11
2019-04-28T09:45:16.140Z,19.90
2019-04-28T09:47:46.564Z,18.98
2019-04-28T09:50:17.263Z,20.12
2019-04-28T09:52:48.859Z,20.79
2019-04-28T09:55:20.862Z,26.02
2019-04-28T09:57:54.800Z,26.48
2019-04-28T10:00:25.511Z,25.92
2019-04-28T10:02:56.776Z,22.59
2019-04-28T10:05:27.355Z,20.29
2019-04-28T10:07:59.930Z,25.41
2019-04-28T10:10:31.137Z,25.11
2019-04-28T10:13:02.631Z,23.68
2019-04-28T10:15:33.909Z,21.85
2019-04-28T10:18:05.494Z,18.67
2019-04-28T10:20:36.155Z,18.67
2019-04-28T10:23:09.520Z,18.72
2019-04-28T10:25:40.135Z,17.92
2019-04-28T10:28:13.884Z,19.84
2019-04-28T10:30:44.436Z,22.87
2019-04-28T10:33:15.032Z,22.74
2019-04-28T10:35:45.914Z,21.87
2019-04-28T10:38:17.542Z,24.18
2019-04-28T10:40:56.859Z,23.08
2019-04-28T10:43:27.409Z,21.16
2019-04-28T10:45:58.182Z,19.19
2019-04-28T10:48:29.230Z,19.34
2019-04-28T10:51:01.210Z,19.34
2019-04-28T10:53:31.881Z,20.39
2019-04-28T10:56:02.253Z,21.34
2019-04-28T10:58:33.186Z,24.06
2019-04-28T11:01:03.566Z,27.27
2019-04-28T11:03:34.220Z,29.09
2019-04-28T11:06:04.797Z,28.06
2019-04-28T11:08:52.486Z,27.43
2019-04-28T11:11:27.478Z,26.98
2019-04-28T11:13:58.625Z,25.13
2019-04-28T11:16:35.133Z,21.36
2019-04-28T11:19:06.304Z,19.18
2019-04-28T11:21:36.932Z,17.58
2019-04-28T11:24:07.320Z,16.92
2019-04-28T11:26:37.992Z,16.71
2019-04-28T11:29:09.741Z,20.40
2019-04-28T11:31:40.423Z,25.25
2019-04-28T11:34:30.813Z,28.31
2019-04-28T11:37:01.679Z,28.89
2019-04-28T11:39:35.136Z,29.24
2019-04-28T11:42:08.328Z,27.57
2019-04-28T11:44:38.922Z,24.45
2019-04-28T11:47:11.863Z,22.00
2019-04-28T11:49:42.452Z,22.96
2019-04-28T11:52:13.473Z,24.58
2019-04-28T11:54:44.174Z,23.29
2019-04-28T11:57:15.064Z,22.49
2019-04-28T11:59:45.581Z,21.70
2019-04-28T12:02:16.564Z,21.70
2019-04-28T12:04:47.121Z,21.15
2019-04-28T12:07:17.818Z,20.04
2019-04-28T12:10:04.462Z,19.17
2019-04-28T12:12:35.908Z,19.03
2019-04-28T12:15:17.572Z,19.67
2019-04-28T12:18:10.132Z,19.67
2019-04-28T12:20:41.158Z,19.58
2019-04-28T12:23:11.715Z,19.76
2019-04-28T12:25:42.308Z,19.64
2019-04-28T12:28:12.918Z,19.83
2019-04-28T12:30:43.502Z,19.35
2019-04-28T12:33:14.199Z,18.28
2019-04-28T12:35:47.877Z,17.78
2019-04-28T12:38:16.946Z,17.53
2019-04-28T12:40:47.606Z,17.19
2019-04-28T12:43:17.926Z,17.33
2019-04-28T12:45:48.826Z,17.43
2019-04-28T12:48:19.158Z,17.33
2019-04-28T12:50:51.110Z,16.86
2019-04-28T12:53:22.388Z,16.53
2019-04-28T12:55:52.995Z,16.20
2019-04-28T12:58:23.601Z,15.97
2019-04-28T13:01:07.483Z,15.66
2019-04-28T13:03:48.605Z,15.34
2019-04-28T13:06:19.292Z,15.08
2019-04-28T13:08:49.919Z,14.78
2019-04-28T13:11:21.946Z,14.78
2019-04-28T13:13:52.211Z,14.69
2019-04-28T13:16:22.661Z,14.69
2019-04-28T13:18:53.300Z,14.77
2019-04-28T13:21:24.194Z,14.90
2019-04-28T13:23:54.512Z,15.09
2019-04-28T13:26:24.829Z,15.34
2019-04-28T13:28:55.433Z,15.55
2019-04-28T13:31:25.776Z,15.96
2019-04-28T13:33:58.088Z,16.24
2019-04-28T13:36:28.950Z,16.46
2019-04-28T13:39:01.697Z,16.59
2019-04-28T13:41:33.765Z,16.53
2019-04-28T13:44:06.530Z,16.68
2019-04-28T13:46:37.228Z,16.41
2019-04-28T13:49:09.676Z,16.62
2019-04-28T13:51:40.080Z,16.74
2019-04-28T13:54:14.201Z,16.57
2019-04-28T13:56:44.871Z,16.52
2019-04-28T13:59:18.899Z,16.54
2019-04-28T14:02:03.702Z,16.29
2019-04-28T14:04:46.320Z,16.29
2019-04-28T14:07:16.708Z,16.14
2019-04-28T14:09:47.351Z,16.70
2019-04-28T14:12:17.961Z,17.27
2019-04-28T14:14:49.090Z,17.77
2019-04-28T14:17:19.732Z,18.19
2019-04-28T14:19:50.208Z,18.59
2019-04-28T14:22:21.137Z,18.39
2019-04-28T14:24:52.862Z,17.46
2019-04-28T14:27:23.548Z,17.46
2019-04-28T14:29:56.077Z,16.83
2019-04-28T14:32:26.775Z,16.60
2019-04-28T14:34:57.393Z,16.04
2019-04-28T14:37:27.763Z,15.48
2019-04-28T14:40:00.685Z,15.02
2019-04-28T14:42:31.315Z,14.03
2019-04-28T14:45:03.366Z,13.29
2019-04-28T14:47:35.000Z,12.87
2019-04-28T14:50:07.375Z,12.60
2019-04-28T14:52:37.744Z,12.52
2019-04-28T14:55:08.937Z,12.51
2019-04-28T14:57:39.335Z,12.51
2019-04-28T15:00:12.438Z,12.72
2019-04-28T15:03:04.875Z,13.24
2019-04-28T15:05:50.914Z,13.78
2019-04-28T15:08:39.854Z,14.02
2019-04-28T15:11:25.008Z,13.80
2019-04-28T15:13:55.648Z,13.75
2019-04-28T15:16:26.058Z,13.76
2019-04-28T15:18:57.688Z,13.83
2019-04-28T15:21:28.301Z,13.74
2019-04-28T15:23:58.800Z,13.73
2019-04-28T15:26:29.192Z,13.50
2019-04-28T15:29:00.626Z,13.49
2019-04-28T15:31:32.596Z,13.20
2019-04-28T15:34:03.146Z,13.05
2019-04-28T15:36:33.555Z,13.13
2019-04-28T15:39:06.873Z,13.08
2019-04-28T15:41:37.598Z,13.19
2019-04-28T15:44:08.034Z,13.27
2019-04-28T15:46:38.391Z,13.39
2019-04-28T15:49:09.001Z,13.51
2019-04-28T15:51:41.832Z,13.56
2019-04-28T15:54:12.180Z,13.74
2019-04-28T15:56:45.694Z,13.83
2019-04-28T15:59:18.629Z,13.97
2019-04-28T16:01:49.341Z,13.98
2019-04-28T16:04:19.964Z,14.00
2019-04-28T16:06:50.661Z,13.99
2019-04-28T16:09:22.851Z,13.99
2019-04-28T16:11:53.460Z,14.05
2019-04-28T16:14:23.994Z,14.07
2019-04-28T16:16:54.672Z,14.03
2019-04-28T16:19:25.425Z,13.84
2019-04-28T16:21:56.007Z,13.67
2019-04-28T16:24:26.623Z,13.70
2019-04-28T16:26:56.952Z,13.75
2019-04-28T16:29:27.358Z,13.73
2019-04-28T16:31:57.928Z,13.74
2019-04-28T16:34:28.485Z,13.71
2019-04-28T16:36:59.130Z,13.72
2019-04-28T16:39:29.646Z,13.86
2019-04-28T16:42:01.375Z,13.98
2019-04-28T16:44:32.733Z,14.07
2019-04-28T16:47:03.061Z,14.11
2019-04-28T16:49:35.844Z,14.13
2019-04-28T16:52:06.165Z,14.15
2019-04-28T16:54:36.897Z,14.13
2019-04-28T16:57:16.968Z,14.14
2019-04-28T16:59:57.700Z,14.08
2019-04-28T17:02:36.094Z,14.01
2019-04-28T17:05:08.481Z,13.92
2019-04-28T17:07:46.059Z,13.77
2019-04-28T17:10:12.137Z,13.72
2019-04-28T17:12:42.729Z,13.68
2019-04-28T17:15:14.556Z,13.63
2019-04-28T17:17:44.975Z,13.60
2019-04-28T17:20:15.634Z,13.58
2019-04-28T17:22:46.065Z,13.44
2019-04-28T17:25:17.940Z,13.42
2019-04-28T17:27:48.324Z,13.40
2019-04-28T17:30:18.864Z,13.36
2019-04-28T17:32:49.249Z,13.27
2019-04-28T17:35:21.541Z,13.18
2019-04-28T17:38:05.742Z,13.04
2019-04-28T17:40:26.083Z,12.78
2019-04-28T17:42:56.712Z,12.39
2019-04-28T17:45:27.492Z,12.08
2019-04-28T17:48:03.096Z,11.85
2019-04-28T17:50:33.787Z,11.71
2019-04-28T17:53:04.916Z,11.62
2019-04-28T17:55:35.430Z,11.49
2019-04-28T17:58:06.940Z,11.39
2019-04-28T18:00:50.186Z,11.31
2019-04-28T18:03:27.882Z,11.22
2019-04-28T18:06:17.592Z,11.11
2019-04-28T18:08:39.346Z,10.93
2019-04-28T18:11:09.634Z,10.76
2019-04-28T18:13:39.948Z,10.67
2019-04-28T18:16:29.711Z,10.55
2019-04-28T18:19:04.903Z,10.42
2019-04-28T18:21:35.275Z,10.28
2019-04-28T18:24:05.801Z,10.15
2019-04-28T18:26:36.493Z,9.98
2019-04-28T18:29:06.829Z,9.87
2019-04-28T18:31:56.639Z,9.79
2019-04-28T18:34:47.031Z,9.75
2019-04-28T18:37:43.868Z,9.70
2019-04-28T18:40:30.472Z,9.65
2019-04-28T18:43:20.386Z,9.58
2019-04-28T18:45:50.949Z,9.51
2019-04-28T18:48:21.299Z,9.44
2019-04-28T18:50:52.608Z,9.38
2019-04-28T18:53:22.967Z,9.29
2019-04-28T18:55:54.308Z,9.21
2019-04-28T18:58:24.940Z,9.13
2019-04-28T19:01:30.320Z,9.08
2019-04-28T19:04:00.644Z,8.97
2019-04-28T19:06:31.037Z,8.82
2019-04-28T19:09:14.095Z,8.71
2019-04-28T19:11:48.842Z,8.61
2019-04-28T19:14:29.507Z,8.53
2019-04-28T19:17:38.353Z,8.40
2019-04-28T19:20:13.569Z,8.40
2019-04-28T19:22:46.809Z,8.33
2019-04-28T19:25:20.599Z,8.28
2019-04-28T19:27:51.000Z,8.28
2019-04-28T19:30:21.795Z,8.24
2019-04-28T19:32:52.253Z,8.17
2019-04-28T19:35:23.976Z,8.08
2019-04-28T19:37:54.427Z,8.01
2019-04-28T19:40:26.568Z,7.89
2019-04-28T19:42:57.014Z,7.82
2019-04-28T19:45:30.198Z,7.76
2019-04-28T19:48:00.675Z,7.73
2019-04-28T19:50:30.971Z,7.73
2019-04-28T19:53:01.611Z,7.71
2019-04-28T19:55:36.202Z,7.68
2019-04-28T19:58:26.456Z,7.69
2019-04-28T20:01:01.977Z,7.84
2019-04-28T20:03:32.758Z,7.95
2019-04-28T20:06:03.543Z,7.96
2019-04-28T20:08:33.963Z,7.90
2019-04-28T20:11:04.343Z,7.78
2019-04-28T20:13:34.793Z,7.65
2019-04-28T20:16:05.242Z,7.58
2019-04-28T20:18:35.656Z,7.51
2019-04-28T20:21:07.917Z,7.47
2019-04-28T20:23:38.267Z,7.37
2019-04-28T20:26:10.492Z,7.26
2019-04-28T20:28:41.170Z,7.19
2019-04-28T20:31:13.791Z,7.02
2019-04-28T20:33:44.174Z,7.02
2019-04-28T20:47:40.597Z,7.02
2019-04-28T20:50:17.984Z,6.92
2019-04-28T21:00:48.520Z,6.62
2019-04-28T21:03:18.877Z,6.55
2019-04-28T21:05:49.223Z,6.52
2019-04-28T21:08:19.499Z,6.51
2019-04-28T21:10:50.223Z,6.45
2019-04-28T21:13:20.737Z,6.40
2019-04-28T21:15:52.322Z,6.41
2019-04-28T21:18:22.760Z,6.38
2019-04-28T21:20:53.341Z,6.33
2019-04-28T21:23:24.589Z,6.30
2019-04-28T21:25:54.931Z,6.24
2019-04-28T21:28:25.567Z,6.22
2019-04-28T21:30:55.919Z,6.21
2019-04-28T21:33:26.454Z,6.19
2019-04-28T21:35:57.019Z,6.15
2019-04-28T21:38:27.490Z,6.10
2019-04-28T21:40:57.808Z,6.06
2019-04-28T21:43:51.859Z,6.03
2019-04-28T21:46:31.716Z,5.99
2019-04-28T21:49:17.043Z,5.95
2019-04-28T21:51:47.481Z,5.93
2019-04-28T21:54:17.848Z,5.90
2019-04-28T21:56:48.481Z,5.95
2019-04-28T21:59:18.894Z,5.92
2019-04-28T22:01:49.259Z,5.85
2019-04-28T22:04:19.698Z,5.83
2019-04-28T22:06:50.341Z,5.78
2019-04-28T22:09:21.016Z,5.74
2019-04-28T22:11:51.286Z,5.71
2019-04-28T22:14:21.599Z,5.65
2019-04-28T22:16:51.902Z,5.61
2019-04-28T22:19:23.791Z,5.60
2019-04-28T22:21:55.866Z,5.59
2019-04-28T22:24:40.046Z,5.58
2019-04-28T22:27:12.661Z,5.55
2019-04-28T22:29:42.975Z,5.57
2019-04-28T22:32:13.675Z,5.60
2019-04-28T22:34:44.018Z,5.60
2019-04-28T22:37:14.596Z,5.56
2019-04-28T22:39:47.910Z,5.52
2019-04-28T22:42:18.466Z,5.51
2019-04-28T22:44:50.279Z,5.67
2019-04-28T22:47:20.707Z,5.80
2019-04-28T22:49:51.212Z,5.76
2019-04-28T22:52:22.232Z,5.65
2019-04-28T22:55:11.446Z,5.52
2019-04-28T22:58:06.609Z,5.42
2019-04-28T23:00:55.675Z,5.35
2019-04-28T23:03:37.160Z,5.30
2019-04-28T23:06:10.359Z,5.22
2019-04-28T23:08:39.973Z,5.23
2019-04-28T23:11:10.331Z,5.25
2019-04-28T23:13:40.912Z,5.27
2019-04-28T23:16:11.290Z,5.26
2019-04-28T23:18:43.334Z,5.22
2019-04-28T23:21:22.300Z,5.21
2019-04-28T23:23:52.874Z,5.16
2019-04-28T23:26:23.234Z,5.12
2019-04-28T23:28:55.768Z,5.10
2019-04-28T23:31:26.024Z,5.08
2019-04-28T23:34:00.607Z,5.06
2019-04-28T23:36:31.029Z,5.00
2019-04-28T23:39:01.914Z,4.93
2019-04-28T23:41:39.222Z,4.88
2019-04-28T23:44:09.872Z,4.83
2019-04-28T23:46:56.405Z,4.79
2019-04-28T23:49:27.939Z,4.75
2019-04-28T23:52:06.500Z,4.72
2019-04-28T23:54:38.525Z,4.74
2019-04-28T23:57:08.936Z,4.75
2019-04-28T23:59:39.265Z,4.75
